Time;durP1;ratioP1;P1;durP2;ratioP2;P2;SDS_P1;SDS_P2;PMS_P1;PMS_P2;Temp;Humidity;BMP_temperature;BMP_pressure;BME280_temperature;BME280_humidity;BME280_pressure;Samples;Min_cycle;Max_cycle;Signal;HPM_P1;HPM_P2
2021/12/12 04:57:58;;;;;;;54.85;29.67;;;;;;;3.12;96.34;101890.09;2039208;23;20024;-62
2021/12/12 04:59:21;;;;;;;57.63;30.50;;;;;;;3.12;96.40;101884.81;1985485;29;43251;-62
2021/12/12 05:00:48;;;;;;;51.75;30.05;;;;;;;3.11;96.22;101883.91;1990092;29;46362;-62
2021/12/12 05:02:34;;;;;;;59.38;32.05;;;;;;;3.12;96.49;101884.81;1985701;29;44670;-62
2021/12/12 05:03:59;;;;;;;60.40;30.23;;;;;;;3.12;95.98;101888.34;1994698;29;45883;-62
2021/12/12 05:05:30;;;;;;;60.50;30.55;;;;;;;3.13;96.23;101883.97;1993433;29;44477;-62
2021/12/12 05:06:43;;;;;;;55.30;30.17;;;;;;;3.11;95.99;101881.28;1993556;29;44100;-62
2021/12/12 05:08:06;;;;;;;54.35;30.35;;;;;;;3.12;96.16;101882.16;1993393;29;46597;-62
2021/12/12 05:09:50;;;;;;;54.78;28.60;;;;;;;3.13;96.29;101876.91;1994683;29;20135;-62
2021/12/12 05:11:03;;;;;;;57.20;31.30;;;;;;;3.13;96.21;101871.63;1955294;30;43338;-62
2021/12/12 05:12:17;;;;;;;51.30;29.17;;;;;;;3.12;96.29;101867.16;1993145;29;44782;-62
2021/12/12 05:13:42;;;;;;;56.60;29.13;;;;;;;3.14;96.48;101869.84;1993292;29;45590;-62
2021/12/12 05:14:52;;;;;;;52.67;30.02;;;;;;;3.14;96.55;101861.91;1992948;29;46209;-62
2021/12/12 05:16:06;;;;;;;57.00;31.10;;;;;;;3.14;96.47;101861.91;1988667;29;43377;-62
2021/12/12 05:17:26;;;;;;;56.03;30.08;;;;;;;3.14;96.10;101864.56;1980359;29;45712;-62
2021/12/12 05:18:37;;;;;;;53.55;27.88;;;;;;;3.15;96.42;101861.06;1981298;29;46038;-62
2021/12/12 05:19:48;;;;;;;57.75;29.50;;;;;;;3.14;96.59;101854.91;1981269;29;45264;-62
2021/12/12 05:21:08;;;;;;;53.90;27.90;;;;;;;3.15;96.66;101863.72;1982230;29;45162;-62
2021/12/12 05:22:17;;;;;;;59.72;28.80;;;;;;;3.15;96.42;101863.72;1989224;29;43153;-63
2021/12/12 05:23:27;;;;;;;52.50;27.38;;;;;;;3.17;96.59;101854.06;1993207;29;45422;-62
2021/12/12 05:24:31;;;;;;;49.83;28.23;;;;;;;3.17;96.68;101854.06;1985005;29;32402;-62
2021/12/12 05:26:13;;;;;;;52.80;27.98;;;;;;;3.17;96.50;101859.34;1977830;29;44971;-63
2021/12/12 05:27:21;;;;;;;54.08;26.17;;;;;;;3.16;96.71;101854.91;1953979;30;31985;-62
2021/12/12 05:28:32;;;;;;;55.30;28.50;;;;;;;3.17;96.63;101854.94;1985970;29;45472;-62
2021/12/12 05:29:56;;;;;;;49.25;28.02;;;;;;;3.16;96.50;101853.16;1985198;29;44979;-62
2021/12/12 05:31:04;;;;;;;57.17;26.60;;;;;;;3.18;96.73;101847.91;1990276;29;20054;-62
2021/12/12 05:32:09;;;;;;;54.30;25.50;;;;;;;3.18;96.70;101853.22;1993489;29;43255;-62
2021/12/12 05:33:14;;;;;;;54.72;27.20;;;;;;;3.19;96.79;101854.97;1985277;29;45474;-62
2021/12/12 05:34:19;;;;;;;53.55;26.65;;;;;;;3.18;96.93;101856.75;1980042;29;44839;-62
2021/12/12 05:35:27;;;;;;;50.83;24.70;;;;;;;3.19;96.76;101852.34;1979991;29;45477;-62
2021/12/12 05:36:32;;;;;;;51.38;27.10;;;;;;;3.19;96.80;101855.84;1994223;29;45023;-62
2021/12/12 05:37:36;;;;;;;48.85;25.83;;;;;;;3.19;96.91;101850.56;1992828;29;37956;-62
2021/12/12 05:38:39;;;;;;;45.63;25.23;;;;;;;3.21;96.69;101854.16;1987153;29;21026;-61
2021/12/12 05:39:42;;;;;;;53.70;26.00;;;;;;;3.22;96.84;101844.47;1978431;29;46290;-62
2021/12/12 05:40:46;;;;;;;51.95;25.88;;;;;;;3.23;96.68;101840.94;1986558;29;20055;-62
2021/12/12 05:41:48;;;;;;;43.72;25.63;;;;;;;3.23;96.97;101838.28;1993312;29;26965;-63
2021/12/12 05:42:57;;;;;;;51.17;25.52;;;;;;;3.24;96.66;101840.09;1985012;29;45041;-63
2021/12/12 05:44:01;;;;;;;53.47;25.67;;;;;;;3.24;96.83;101840.09;1993776;29;44001;-63
2021/12/12 05:45:07;;;;;;;50.78;25.15;;;;;;;3.24;97.03;101830.41;2000937;29;45890;-63
2021/12/12 05:46:15;;;;;;;47.58;25.67;;;;;;;3.25;96.88;101824.25;1993393;29;44137;-63
2021/12/12 05:47:17;;;;;;;48.88;26.10;;;;;;;3.25;96.97;101824.25;1996343;29;33897;-63
2021/12/12 05:48:21;;;;;;;47.45;25.17;;;;;;;3.27;97.14;101819.00;2001319;29;42624;-63
2021/12/12 05:49:24;;;;;;;51.65;24.42;;;;;;;3.27;96.93;101823.38;2001002;29;45630;-64
2021/12/12 05:50:27;;;;;;;42.25;23.27;;;;;;;3.28;96.78;101825.19;2001595;29;21263;-62
2021/12/12 05:51:29;;;;;;;52.35;25.55;;;;;;;3.28;96.87;101817.25;2002005;29;43210;-64
2021/12/12 05:52:33;;;;;;;47.67;24.80;;;;;;;3.28;97.02;101820.78;2001188;29;29446;-63
2021/12/12 05:53:35;;;;;;;49.85;25.13;;;;;;;3.28;97.04;101807.53;2001103;29;44319;-64
2021/12/12 05:54:39;;;;;;;51.80;24.95;;;;;;;3.29;96.81;101813.75;1992215;29;42897;-63
2021/12/12 05:55:43;;;;;;;44.30;23.83;;;;;;;3.30;96.90;101815.50;1986129;29;24317;-63
2021/12/12 05:56:47;;;;;;;44.72;24.40;;;;;;;3.29;96.82;101813.75;1993333;29;43736;-64
2021/12/12 05:57:54;;;;;;;42.17;23.23;;;;;;;3.30;96.87;101811.09;1984732;29;45885;-63
2021/12/12 05:58:58;;;;;;;43.00;23.23;;;;;;;3.31;96.92;101818.19;1987579;29;34641;-64
2021/12/12 06:00:09;;;;;;;43.92;23.83;;;;;;;3.31;96.81;101814.66;2000973;29;45403;-64
2021/12/12 06:01:12;;;;;;;47.85;25.23;;;;;;;3.30;96.92;101819.03;2000832;29;45160;-64
2021/12/12 06:02:15;;;;;;;47.22;24.58;;;;;;;3.31;96.98;101809.38;2000813;29;44787;-64
2021/12/12 06:03:21;;;;;;;45.20;23.75;;;;;;;3.33;96.87;101810.28;2000727;29;45104;-64
2021/12/12 06:04:25;;;;;;;45.15;24.58;;;;;;;3.32;96.80;101806.75;2001194;29;28656;-64
2021/12/12 06:05:28;;;;;;;49.42;23.70;;;;;;;3.34;96.86;101806.75;1992589;29;45511;-64
2021/12/12 06:06:38;;;;;;;43.80;23.67;;;;;;;3.32;97.01;101814.69;1984977;29;43828;-64
2021/12/12 06:07:42;;;;;;;47.53;22.55;;;;;;;3.32;97.25;101817.34;1979485;29;37389;-64
2021/12/12 06:08:48;;;;;;;49.00;24.15;;;;;;;3.35;96.71;101822.69;1980447;29;20055;-64
2021/12/12 06:09:51;;;;;;;44.28;23.42;;;;;;;3.35;96.98;101814.75;1985956;29;44902;-64
2021/12/12 06:10:55;;;;;;;53.00;25.67;;;;;;;3.35;96.98;101821.81;1992498;29;44008;-64
2021/12/12 06:12:00;;;;;;;45.22;23.90;;;;;;;3.36;96.98;101823.59;1993074;29;45670;-64
2021/12/12 06:13:05;;;;;;;48.28;24.63;;;;;;;3.35;96.88;101824.44;2000892;29;39846;-63
2021/12/12 06:14:08;;;;;;;38.90;23.23;;;;;;;3.35;97.32;101817.38;1992578;29;45564;-63
2021/12/12 06:15:16;;;;;;;44.20;23.65;;;;;;;3.37;96.93;101818.31;1992689;29;47269;-64
2021/12/12 06:16:20;;;;;;;43.72;23.73;;;;;;;3.37;96.83;101828.91;1999327;29;44759;-64
2021/12/12 06:17:23;;;;;;;47.22;25.67;;;;;;;3.38;96.99;101819.22;2001117;29;29732;-64
2021/12/12 06:18:32;;;;;;;50.83;24.23;;;;;;;3.37;97.10;101818.31;2000246;29;43897;-64
2021/12/12 06:19:37;;;;;;;51.00;24.15;;;;;;;3.39;97.01;101821.91;2000865;29;45318;-64
2021/12/12 06:20:40;;;;;;;40.00;23.08;;;;;;;3.39;96.98;101815.69;2000754;29;38084;-64
2021/12/12 06:21:43;;;;;;;40.15;23.88;;;;;;;3.39;96.75;101803.38;2000676;29;43127;-63
2021/12/12 06:22:47;;;;;;;43.17;24.88;;;;;;;3.39;96.88;101818.34;2000322;29;43048;-64
2021/12/12 06:23:49;;;;;;;51.20;24.10;;;;;;;3.38;96.85;101804.22;2000088;29;44897;-65
2021/12/12 06:24:52;;;;;;;46.40;22.70;;;;;;;3.41;96.96;101811.31;2000126;29;43383;-63
2021/12/12 06:25:56;;;;;;;39.50;23.92;;;;;;;3.42;97.04;101815.78;2001635;29;20165;-63
2021/12/12 06:27:12;;;;;;;45.78;24.48;;;;;;;3.39;97.05;101811.31;2000763;29;44432;-63
2021/12/12 06:28:22;;;;;;;46.83;25.20;;;;;;;3.40;97.06;101809.56;2000543;29;44364;-63
2021/12/12 06:29:24;;;;;;;40.65;24.25;;;;;;;3.40;96.86;101820.16;2000772;29;47157;-64
2021/12/12 06:30:26;;;;;;;46.22;25.27;;;;;;;3.39;97.01;101821.91;2000480;29;43944;-63
2021/12/12 06:31:28;;;;;;;44.00;23.08;;;;;;;3.41;97.10;101816.63;2001047;29;36818;-61
2021/12/12 06:32:29;;;;;;;42.80;23.50;;;;;;;3.42;97.14;101827.25;2000536;29;45012;-63
2021/12/12 06:33:32;;;;;;;44.30;23.70;;;;;;;3.41;97.08;101819.25;2001233;29;45666;-63
2021/12/12 06:34:34;;;;;;;45.95;24.95;;;;;;;3.41;97.20;101817.53;2000655;29;43847;-61
2021/12/12 06:35:37;;;;;;;47.05;23.90;;;;;;;3.43;97.23;101822.88;2000904;29;43450;-63
2021/12/12 06:36:40;;;;;;;39.28;22.60;;;;;;;3.44;97.08;101820.22;1999494;29;45636;-64
2021/12/12 06:37:42;;;;;;;39.58;23.42;;;;;;;3.44;97.02;101824.63;2001338;29;30613;-63
2021/12/12 06:38:49;;;;;;;49.30;23.92;;;;;;;3.43;97.56;101831.69;2000376;29;44344;-64
2021/12/12 06:39:53;;;;;;;46.95;23.90;;;;;;;3.43;97.17;101823.75;2001189;29;34098;-63
2021/12/12 06:40:55;;;;;;;42.05;23.17;;;;;;;3.44;96.95;101822.88;1991911;29;44498;-63
2021/12/12 06:41:58;;;;;;;40.67;22.73;;;;;;;3.44;97.14;101820.22;1985089;29;45067;-65
2021/12/12 06:43:04;;;;;;;43.90;23.23;;;;;;;3.44;97.16;101833.47;1985499;29;34476;-64
2021/12/12 06:44:10;;;;;;;41.47;22.25;;;;;;;3.46;97.09;101822.03;1994494;29;20107;-63
2021/12/12 06:45:13;;;;;;;44.40;23.17;;;;;;;3.47;97.16;101829.13;2000354;29;45229;-63
2021/12/12 06:46:17;;;;;;;34.20;21.80;;;;;;;3.47;97.17;101823.81;1990813;29;44664;-64
2021/12/12 06:47:19;;;;;;;41.25;22.27;;;;;;;3.48;97.08;101825.59;1992811;29;45968;-64
2021/12/12 06:48:22;;;;;;;40.08;21.55;;;;;;;3.48;97.01;101825.59;1997918;29;44033;-63
2021/12/12 06:49:24;;;;;;;39.50;23.17;;;;;;;3.48;96.98;101830.88;1992609;29;45946;-63
2021/12/12 06:50:27;;;;;;;43.40;22.00;;;;;;;3.47;97.12;101827.34;2000120;29;46746;-63
2021/12/12 06:51:37;;;;;;;38.50;22.52;;;;;;;3.48;97.17;101825.59;2000095;29;42414;-64
2021/12/12 06:52:41;;;;;;;42.90;22.60;;;;;;;3.48;96.89;101823.81;2002410;29;20049;-64
2021/12/12 06:53:46;;;;;;;37.10;21.75;;;;;;;3.50;97.26;101824.78;2000285;29;35389;-63
2021/12/12 06:54:50;;;;;;;39.28;22.15;;;;;;;3.50;96.97;101824.78;1992498;29;45521;-64
2021/12/12 06:55:54;;;;;;;37.60;22.80;;;;;;;3.50;97.12;101815.91;1992330;29;46406;-63
2021/12/12 06:57:03;;;;;;;38.55;21.15;;;;;;;3.51;97.15;101812.41;1993438;29;43560;-65
2021/12/12 06:58:06;;;;;;;37.50;21.70;;;;;;;3.51;97.03;101818.59;2000498;29;45553;-65
2021/12/12 06:59:08;;;;;;;38.42;22.15;;;;;;;3.51;97.11;101818.59;2000394;29;40611;-63
2021/12/12 07:00:18;;;;;;;37.58;21.60;;;;;;;3.52;97.23;101820.41;2000686;29;44547;-63
2021/12/12 07:01:28;;;;;;;36.08;21.52;;;;;;;3.54;96.87;101825.72;2000675;29;44098;-63
2021/12/12 07:02:31;;;;;;;34.20;21.27;;;;;;;3.53;97.03;101823.94;2000320;29;44898;-64
2021/12/12 07:03:35;;;;;;;35.88;22.08;;;;;;;3.53;97.35;101814.22;1992436;29;45446;-63
2021/12/12 07:04:42;;;;;;;34.35;22.67;;;;;;;3.53;97.11;101824.81;1992675;29;44423;-64
2021/12/12 07:05:45;;;;;;;38.28;22.27;;;;;;;3.54;97.19;101817.78;1999828;29;44562;-64
2021/12/12 07:06:53;;;;;;;37.50;21.83;;;;;;;3.54;97.15;101823.09;1999733;29;45659;-64
2021/12/12 07:07:57;;;;;;;35.78;21.98;;;;;;;3.53;97.28;101822.16;2000376;29;45682;-64
2021/12/12 07:09:03;;;;;;;34.47;21.80;;;;;;;3.53;96.98;101819.53;2000186;29;45329;-63
2021/12/12 07:10:09;;;;;;;33.38;21.75;;;;;;;3.53;97.17;101814.22;2001254;29;20082;-63
2021/12/12 07:11:17;;;;;;;34.00;21.63;;;;;;;3.54;97.21;101817.78;2000481;29;43294;-63
2021/12/12 07:12:23;;;;;;;31.88;21.58;;;;;;;3.53;97.04;101816.88;2000270;29;44336;-63
2021/12/12 07:13:25;;;;;;;38.83;22.70;;;;;;;3.54;97.08;101823.09;2000564;29;44399;-63
2021/12/12 07:14:27;;;;;;;34.75;22.25;;;;;;;3.55;97.16;101816.91;2000220;29;42879;-64
2021/12/12 07:15:36;;;;;;;33.50;21.90;;;;;;;3.53;97.08;101821.28;1992562;29;35206;-63
2021/12/12 07:16:38;;;;;;;36.97;21.30;;;;;;;3.53;97.23;101813.34;1993497;29;44346;-63
2021/12/12 07:17:41;;;;;;;33.70;21.83;;;;;;;3.53;97.08;101824.81;1992405;29;45929;-63
2021/12/12 07:18:44;;;;;;;32.10;21.05;;;;;;;3.53;97.11;101819.53;1992760;29;35101;-64
2021/12/12 07:19:49;;;;;;;33.95;21.85;;;;;;;3.54;97.10;101807.19;2001777;29;20134;-64
2021/12/12 07:20:57;;;;;;;33.75;20.75;;;;;;;3.55;97.01;101811.63;1991854;29;43154;-63
2021/12/12 07:22:00;;;;;;;31.60;21.40;;;;;;;3.54;97.22;101815.13;1994331;29;20119;-63
2021/12/12 07:23:07;;;;;;;37.42;21.83;;;;;;;3.54;97.15;101818.66;2000420;29;43921;-64
2021/12/12 07:24:09;;;;;;;37.47;22.30;;;;;;;3.56;97.46;101831.94;1991801;29;46621;-64
2021/12/12 07:25:12;;;;;;;31.65;21.25;;;;;;;3.55;97.09;101827.50;1985374;29;43571;-63
2021/12/12 07:26:15;;;;;;;32.08;22.33;;;;;;;3.55;97.36;101822.19;1992206;29;45736;-63
2021/12/12 07:27:18;;;;;;;34.92;22.58;;;;;;;3.54;97.30;101825.72;2000607;29;46069;-64
2021/12/12 07:28:20;;;;;;;30.67;20.33;;;;;;;3.55;97.42;101823.13;2000416;29;44758;-63
2021/12/12 07:29:21;;;;;;;39.85;22.30;;;;;;;3.55;97.35;101822.19;1992427;29;46117;-63
2021/12/12 07:30:28;;;;;;;29.55;20.83;;;;;;;3.56;97.58;101818.72;1986345;29;20265;-64
2021/12/12 07:31:34;;;;;;;36.33;22.02;;;;;;;3.56;97.62;101816.06;1993089;29;44075;-64
2021/12/12 07:32:39;;;;;;;36.25;21.75;;;;;;;3.58;97.43;101824.91;1992176;29;46060;-63
2021/12/12 07:33:44;;;;;;;31.55;21.92;;;;;;;3.56;97.67;101824.00;1992912;29;44395;-63
2021/12/12 07:34:46;;;;;;;29.38;20.77;;;;;;;3.58;97.40;101822.28;2000406;29;45470;-63
2021/12/12 07:35:50;;;;;;;29.60;19.77;;;;;;;3.60;97.31;101826.72;1992884;29;29568;-64
2021/12/12 07:36:56;;;;;;;31.33;20.70;;;;;;;3.61;97.47;101827.63;1985272;29;43520;-63
2021/12/12 07:38:05;;;;;;;29.55;20.10;;;;;;;3.60;97.63;101820.53;1993583;29;43997;-64
2021/12/12 07:39:13;;;;;;;28.05;19.98;;;;;;;3.60;97.32;101820.53;1992690;29;30726;-64
2021/12/12 07:40:16;;;;;;;32.78;20.52;;;;;;;3.59;97.28;101832.03;1994270;29;43995;-63
2021/12/12 07:41:22;;;;;;;30.52;19.60;;;;;;;3.59;97.27;101824.97;1992026;29;43495;-65
2021/12/12 07:42:24;;;;;;;32.20;19.92;;;;;;;3.60;97.49;101828.50;1985734;29;43092;-65
2021/12/12 07:43:29;;;;;;;30.58;20.42;;;;;;;3.60;97.40;101825.84;1992812;29;44777;-64
2021/12/12 07:44:34;;;;;;;31.17;21.40;;;;;;;3.60;97.43;101825.84;1984615;29;43228;-64
2021/12/12 07:45:37;;;;;;;30.05;20.92;;;;;;;3.60;97.45;101832.03;1986396;29;45827;-64
2021/12/12 07:46:40;;;;;;;31.13;21.70;;;;;;;3.61;97.30;101836.47;1999889;29;44893;-64
2021/12/12 07:47:43;;;;;;;35.13;21.70;;;;;;;3.60;97.47;101832.03;2000705;29;44069;-64
2021/12/12 07:48:49;;;;;;;31.35;22.10;;;;;;;3.62;97.41;101834.69;2001292;29;46373;-63
2021/12/12 07:49:54;;;;;;;31.83;21.55;;;;;;;3.63;97.30;101839.16;2001833;29;44812;-63
2021/12/12 07:50:57;;;;;;;30.70;21.05;;;;;;;3.63;97.32;101836.50;2001758;29;45437;-64
2021/12/12 07:52:02;;;;;;;28.92;20.88;;;;;;;3.63;97.54;101837.38;2001482;29;45992;-64
2021/12/12 07:53:04;;;;;;;29.75;18.95;;;;;;;3.65;97.72;101842.72;2001657;29;37753;-64
2021/12/12 07:54:07;;;;;;;30.73;20.38;;;;;;;3.65;97.19;101850.66;1994469;29;20047;-64
2021/12/12 07:55:11;;;;;;;33.25;21.48;;;;;;;3.64;97.25;101843.56;1986500;29;37886;-64
2021/12/12 07:56:12;;;;;;;29.45;20.23;;;;;;;3.68;97.61;101853.38;1993042;29;45976;-64
2021/12/12 07:57:14;;;;;;;24.23;18.35;;;;;;;3.68;97.42;101845.44;2001916;29;35365;-64
2021/12/12 07:58:19;;;;;;;29.63;21.25;;;;;;;3.67;97.38;101848.94;2001070;29;45480;-63
2021/12/12 07:59:20;;;;;;;28.75;21.05;;;;;;;3.69;97.38;101852.50;2001728;29;45141;-64
2021/12/12 08:00:25;;;;;;;26.80;19.95;;;;;;;3.70;97.44;101848.13;2002135;29;31713;-64
2021/12/12 08:01:28;;;;;;;27.27;19.40;;;;;;;3.71;97.43;101844.59;2001656;29;43520;-64
2021/12/12 08:02:33;;;;;;;25.60;19.42;;;;;;;3.70;97.57;101843.72;2001175;29;47385;-67
2021/12/12 08:03:37;;;;;;;31.42;20.77;;;;;;;3.71;97.61;101844.59;1993897;29;34090;-65
2021/12/12 08:04:40;;;;;;;26.67;19.65;;;;;;;3.72;97.52;101852.56;1986023;29;44993;-65
2021/12/12 08:05:43;;;;;;;25.30;20.02;;;;;;;3.74;97.28;101850.84;1993991;29;43625;-66
2021/12/12 08:06:45;;;;;;;23.95;19.85;;;;;;;3.73;97.48;101838.47;1993593;29;40162;-62
2021/12/12 08:07:47;;;;;;;24.25;19.45;;;;;;;3.74;97.33;101840.25;1986204;29;46278;-63
2021/12/12 08:08:50;;;;;;;26.15;19.58;;;;;;;3.75;97.06;101842.03;1993748;29;44464;-62
2021/12/12 08:09:55;;;;;;;24.85;20.83;;;;;;;3.75;97.23;101855.28;1993958;29;32617;-62
2021/12/12 08:10:59;;;;;;;25.17;19.70;;;;;;;3.76;97.29;101843.81;1986197;29;44753;-64
2021/12/12 08:12:01;;;;;;;25.38;20.00;;;;;;;3.76;97.66;101841.16;1994474;29;45188;-63
2021/12/12 08:13:04;;;;;;;25.02;20.23;;;;;;;3.76;97.26;101838.53;2001407;29;45143;-64
2021/12/12 08:14:13;;;;;;;25.73;20.25;;;;;;;3.77;97.19;101848.25;1993409;29;43581;-64
2021/12/12 08:15:17;;;;;;;24.15;19.65;;;;;;;3.78;97.49;101835.91;1994687;29;45630;-63
2021/12/12 08:16:22;;;;;;;24.75;19.90;;;;;;;3.79;97.14;101833.28;2001336;29;44502;-63
2021/12/12 08:17:25;;;;;;;23.42;19.17;;;;;;;3.79;97.30;101838.59;2002255;29;20054;-66
2021/12/12 08:18:29;;;;;;;24.85;19.15;;;;;;;3.80;97.38;101845.69;1992853;29;46539;-72
2021/12/12 08:19:31;;;;;;;26.95;20.42;;;;;;;3.81;97.33;101846.56;1993400;29;43378;-63
2021/12/12 08:20:34;;;;;;;25.20;19.88;;;;;;;3.81;97.44;101850.09;1992707;29;45137;-63
2021/12/12 08:21:38;;;;;;;23.60;20.05;;;;;;;3.82;97.08;101843.03;1993955;29;39174;-63
2021/12/12 08:22:42;;;;;;;23.55;19.00;;;;;;;3.82;97.29;101856.28;1993576;29;32460;-63
2021/12/12 08:23:44;;;;;;;25.27;20.17;;;;;;;3.82;97.53;101848.34;1986536;29;45214;-63
2021/12/12 08:24:47;;;;;;;24.08;20.70;;;;;;;3.82;97.35;101849.25;1985948;29;44872;-63
2021/12/12 08:25:51;;;;;;;22.30;19.85;;;;;;;3.82;97.73;101846.59;1986213;29;43711;-63
2021/12/12 08:26:54;;;;;;;25.83;19.83;;;;;;;3.82;97.25;101849.25;1993184;29;46009;-63
2021/12/12 08:28:00;;;;;;;23.52;18.95;;;;;;;3.83;97.33;101845.72;1986498;29;45332;-63
2021/12/12 08:29:09;;;;;;;25.02;19.95;;;;;;;3.83;97.09;101845.72;1993747;29;44349;-63
2021/12/12 08:30:15;;;;;;;21.77;19.00;;;;;;;3.87;97.43;101848.44;1993181;29;45995;-71
2021/12/12 08:31:17;;;;;;;23.48;19.63;;;;;;;3.88;97.39;101852.88;1987529;29;36517;-63
2021/12/12 08:32:19;;;;;;;25.83;19.88;;;;;;;3.88;97.57;101850.25;1986083;29;46510;-64
2021/12/12 08:33:41;;;;;;;24.83;19.52;;;;;;;3.87;97.53;101844.03;1993864;29;28634;-63
2021/12/12 08:34:43;;;;;;;24.63;19.55;;;;;;;3.90;97.31;101845.84;1993595;29;44792;-63
2021/12/12 08:35:45;;;;;;;23.00;19.52;;;;;;;3.89;97.12;101849.34;1993114;29;45836;-63
2021/12/12 08:36:52;;;;;;;26.73;21.33;;;;;;;3.89;97.68;101838.75;1993369;29;45337;-63
2021/12/12 08:37:59;;;;;;;24.33;20.60;;;;;;;3.90;97.31;101840.56;2001469;29;46529;-64
2021/12/12 08:39:08;;;;;;;28.30;22.23;;;;;;;3.90;97.39;101846.75;1992513;29;44743;-64
2021/12/12 08:40:19;;;;;;;25.23;20.45;;;;;;;3.90;97.36;101838.78;1994506;29;44296;-64
2021/12/12 08:41:23;;;;;;;25.40;21.52;;;;;;;3.91;97.36;101847.63;2001202;29;44466;-63
2021/12/12 08:42:27;;;;;;;25.77;21.17;;;;;;;3.90;97.62;101835.25;1992909;29;42918;-64
2021/12/12 08:43:29;;;;;;;23.42;20.50;;;;;;;3.92;97.60;101836.19;1987243;29;20056;-64
2021/12/12 08:44:34;;;;;;;24.90;21.23;;;;;;;3.93;97.66;101835.28;1992632;29;37894;-62
2021/12/12 08:45:43;;;;;;;25.80;20.88;;;;;;;3.92;97.63;101838.81;2001082;29;45711;-64
2021/12/12 08:46:50;;;;;;;24.80;21.13;;;;;;;3.94;97.47;101832.69;1993891;29;20051;-62
2021/12/12 08:47:54;;;;;;;27.52;21.58;;;;;;;3.94;97.85;101843.28;1987442;29;31589;-62
2021/12/12 08:48:59;;;;;;;24.60;20.60;;;;;;;3.96;97.29;101845.97;1992978;29;46537;-63
2021/12/12 08:50:05;;;;;;;25.60;20.98;;;;;;;3.95;97.34;101836.25;2000696;29;44843;-64
2021/12/12 08:51:17;;;;;;;26.67;20.65;;;;;;;3.97;97.49;101832.75;2001481;29;45388;-64
2021/12/12 08:52:30;;;;;;;27.02;20.73;;;;;;;3.99;97.63;101838.06;1992608;29;45151;-64
2021/12/12 08:53:33;;;;;;;25.40;21.52;;;;;;;4.00;97.62;101837.19;1994598;29;40405;-62
2021/12/12 08:54:39;;;;;;;27.17;20.88;;;;;;;4.00;97.44;101842.50;1992060;29;44266;-62
2021/12/12 08:55:45;;;;;;;24.83;20.13;;;;;;;4.03;97.94;101833.72;1986103;29;45724;-64
2021/12/12 08:56:49;;;;;;;26.77;20.83;;;;;;;4.02;97.80;101840.78;1978322;29;44402;-62
2021/12/12 08:58:14;;;;;;;25.00;21.48;;;;;;;4.03;97.38;101842.56;1986478;29;46773;-62
2021/12/12 08:59:22;;;;;;;23.15;20.55;;;;;;;4.04;97.49;101838.13;2001344;29;25833;-62
2021/12/12 09:00:29;;;;;;;25.30;20.95;;;;;;;4.05;97.60;101837.28;2000806;29;45658;-62
2021/12/12 09:01:31;;;;;;;27.75;21.08;;;;;;;4.06;97.50;101836.44;1993100;29;44488;-62
2021/12/12 09:02:33;;;;;;;26.10;22.20;;;;;;;4.07;97.74;101836.44;1993788;29;20916;-64
2021/12/12 09:03:59;;;;;;;25.17;21.90;;;;;;;4.09;97.67;101841.78;2000688;29;45717;-66
2021/12/12 09:05:25;;;;;;;24.85;20.60;;;;;;;4.09;97.47;101833.81;1994265;29;21030;-64
2021/12/12 09:07:16;;;;;;;23.58;18.70;;;;;;;4.12;97.76;101833.88;2000938;29;43225;-64
2021/12/12 09:08:49;;;;;;;24.88;20.83;;;;;;;4.13;97.54;101827.75;2001157;29;40183;-65
2021/12/12 09:10:31;;;;;;;24.58;20.45;;;;;;;4.15;97.87;101826.00;1994017;29;20147;-65
2021/12/12 09:11:59;;;;;;;23.73;20.48;;;;;;;4.16;97.54;101830.41;2002302;29;20252;-63
2021/12/12 09:13:19;;;;;;;22.90;19.83;;;;;;;4.19;97.87;101827.84;2000917;29;43373;-64
2021/12/12 09:14:44;;;;;;;26.98;20.52;;;;;;;4.21;97.77;101832.28;2001374;29;21008;-64
2021/12/12 09:15:58;;;;;;;25.98;19.80;;;;;;;4.21;97.70;101837.59;1992846;29;36735;-64
2021/12/12 09:17:18;;;;;;;25.58;20.27;;;;;;;4.23;97.57;101834.97;1990184;29;35075;-64
2021/12/12 09:18:40;;;;;;;28.85;21.40;;;;;;;4.24;97.54;101831.47;1992461;29;46552;-64
2021/12/12 09:19:53;;;;;;;23.13;20.63;;;;;;;4.29;97.69;101839.47;1986422;29;33306;-64
2021/12/12 09:21:14;;;;;;;23.77;19.90;;;;;;;4.31;97.63;101832.47;1973430;29;20958;-64
2021/12/12 09:22:44;;;;;;;22.67;20.25;;;;;;;4.34;97.70;101836.06;1984515;29;30915;-64
2021/12/12 09:24:01;;;;;;;23.02;19.73;;;;;;;4.37;97.33;101843.16;1985250;29;41617;-64
2021/12/12 09:25:42;;;;;;;26.75;21.23;;;;;;;4.38;97.50;101839.66;1982685;29;43342;-66
2021/12/12 09:26:50;;;;;;;24.60;19.00;;;;;;;4.40;97.76;101853.84;1984596;29;44695;-64
2021/12/12 09:28:03;;;;;;;23.10;19.48;;;;;;;4.41;97.32;101855.59;1983155;29;20167;-64
2021/12/12 09:29:22;;;;;;;24.00;19.92;;;;;;;4.42;97.37;101854.75;1987480;29;45083;-64
2021/12/12 09:30:26;;;;;;;22.95;20.33;;;;;;;4.40;97.55;101844.09;1986089;29;33315;-64
2021/12/12 09:31:45;;;;;;;23.27;20.17;;;;;;;4.41;97.75;101852.94;1996003;29;20035;-64
2021/12/12 09:33:12;;;;;;;22.10;19.38;;;;;;;4.43;97.52;101858.28;1993845;29;20938;-64
2021/12/12 09:34:44;;;;;;;23.20;20.17;;;;;;;4.43;97.78;101853.84;1989832;29;45426;-64
2021/12/12 09:36:02;;;;;;;20.88;18.42;;;;;;;4.45;97.65;101865.41;1991281;29;43134;-64
2021/12/12 09:37:36;;;;;;;21.50;19.17;;;;;;;4.47;97.82;101860.09;1987790;29;31532;-64
2021/12/12 09:38:52;;;;;;;26.40;21.02;;;;;;;4.47;97.81;101860.09;1998656;29;46868;-64
2021/12/12 09:40:18;;;;;;;30.63;23.60;;;;;;;4.49;97.62;101859.28;1993077;29;46120;-64
2021/12/12 09:42:14;;;;;;;24.83;20.63;;;;;;;4.49;97.53;101859.28;1997549;29;45347;-64
2021/12/12 09:43:41;;;;;;;27.90;21.85;;;;;;;4.49;97.54;101851.34;1962378;30;45164;-63
2021/12/12 09:45:16;;;;;;;28.60;22.25;;;;;;;4.53;97.42;101853.16;1955464;30;41726;-64
2021/12/12 09:46:45;;;;;;;31.10;23.20;;;;;;;4.55;97.69;101847.88;2000420;29;45630;-64
2021/12/12 09:52:46;;;;;;;26.55;22.40;;;;;;;4.59;97.73;101855.94;2001134;29;44228;-63
2021/12/12 09:54:38;;;;;;;25.67;22.02;;;;;;;4.62;97.57;101844.47;1999836;29;37729;-64
2021/12/12 09:56:07;;;;;;;34.17;25.38;;;;;;;4.64;97.85;101855.97;1962786;30;44489;-63
2021/12/12 09:57:33;;;;;;;26.08;22.05;;;;;;;4.67;97.71;101863.13;1962534;30;46415;-64
2021/12/12 09:59:18;;;;;;;24.67;21.17;;;;;;;4.70;97.66;101857.84;1959224;30;43029;-64
2021/12/12 10:00:28;;;;;;;25.05;21.38;;;;;;;4.70;97.70;101853.44;1962072;30;45810;-63
2021/12/12 10:01:39;;;;;;;27.02;22.70;;;;;;;4.72;97.74;101862.31;1983829;29;31044;-64
2021/12/12 10:02:41;;;;;;;31.17;26.30;;;;;;;4.73;97.66;101863.19;1987029;29;45441;-64
2021/12/12 10:04:03;;;;;;;27.50;23.00;;;;;;;4.74;97.72;101871.19;1993254;29;45360;-64
2021/12/12 10:05:19;;;;;;;35.97;28.58;;;;;;;4.75;97.57;101861.47;1994145;29;20162;-64
2021/12/12 10:06:38;;;;;;;29.63;25.73;;;;;;;4.75;97.99;101859.69;1993119;29;45642;-63
2021/12/12 10:08:00;;;;;;;28.55;22.65;;;;;;;4.76;97.38;101860.59;1993384;29;42659;-63
2021/12/12 10:09:14;;;;;;;29.02;23.13;;;;;;;4.76;97.43;101852.66;1992840;29;44567;-63
2021/12/12 10:10:46;;;;;;;28.52;23.17;;;;;;;4.78;97.85;101843.84;1993615;29;20042;-63
2021/12/12 10:12:19;;;;;;;28.75;23.35;;;;;;;4.80;97.86;101832.38;1992725;29;43573;-64
2021/12/12 10:13:38;;;;;;;35.10;26.73;;;;;;;4.81;98.05;101842.09;1985729;29;29202;-64
2021/12/12 10:14:59;;;;;;;28.90;25.05;;;;;;;4.82;97.87;101842.13;1980682;29;45478;-64
2021/12/12 10:16:20;;;;;;;27.58;23.42;;;;;;;4.84;97.74;101850.09;1980851;29;22670;-63
2021/12/12 10:17:49;;;;;;;25.50;20.95;;;;;;;4.84;97.63;101856.28;1989841;29;45092;-63
2021/12/12 10:19:27;;;;;;;24.65;21.05;;;;;;;4.86;97.86;101849.25;1985722;29;25467;-64
2021/12/12 10:20:41;;;;;;;26.65;21.63;;;;;;;4.87;97.88;101851.03;1964983;29;43989;-63
2021/12/12 10:21:54;;;;;;;26.38;22.15;;;;;;;4.88;98.35;101847.53;1977202;29;45428;-64
2021/12/12 10:23:23;;;;;;;25.00;21.05;;;;;;;4.89;97.97;101853.72;1974412;29;36251;-64